Time;durP1;ratioP1;P1;durP2;ratioP2;P2;SDS_P1;SDS_P2;PMS_P1;PMS_P2;Temp;Humidity;BMP_temperature;BMP_pressure;BME280_temperature;BME280_humidity;BME280_pressure;Samples;Min_cycle;Max_cycle;Signal;HPM_P1;HPM_P2
2023/06/29 00:00:21;;;;;;;10.27;6.50;;;18.90;69.90;;;;;;4967237;28;20840;-72
2023/06/29 00:02:48;;;;;;;10.07;5.77;;;18.70;70.40;;;;;;4973770;28;20535;-73
2023/06/29 00:05:14;;;;;;;8.10;5.70;;;18.60;70.50;;;;;;4976310;28;20472;-72
2023/06/29 00:07:40;;;;;;;10.53;5.70;;;18.60;70.50;;;;;;4977499;28;20447;-72
2023/06/29 00:10:08;;;;;;;8.47;6.20;;;18.50;70.50;;;;;;4966701;28;20459;-72
2023/06/29 00:12:33;;;;;;;10.13;6.00;;;18.50;70.50;;;;;;4970585;28;20464;-72
2023/06/29 00:14:59;;;;;;;8.90;6.30;;;18.50;70.70;;;;;;4970909;28;20534;-72
2023/06/29 00:17:25;;;;;;;9.50;5.83;;;18.60;70.40;;;;;;4973219;28;20673;-72
2023/06/29 00:19:50;;;;;;;7.43;5.43;;;18.70;70.10;;;;;;4968954;28;20269;-72
2023/06/29 00:22:18;;;;;;;10.90;6.07;;;18.70;70.10;;;;;;4973457;28;20265;-73
2023/06/29 00:24:43;;;;;;;7.23;5.33;;;18.60;70.20;;;;;;4970754;28;20193;-72
2023/06/29 00:27:13;;;;;;;9.27;5.83;;;18.50;70.40;;;;;;4971339;28;20450;-72
2023/06/29 00:29:41;;;;;;;8.33;5.27;;;18.50;70.50;;;;;;4966062;28;20942;-73
2023/06/29 00:32:07;;;;;;;10.13;5.73;;;18.40;70.50;;;;;;4976496;28;20444;-74
2023/06/29 00:34:33;;;;;;;6.80;5.10;;;18.50;70.40;;;;;;4971470;28;20450;-72
2023/06/29 00:36:58;;;;;;;8.63;5.73;;;18.40;70.50;;;;;;4968879;28;20513;-71
2023/06/29 00:39:24;;;;;;;7.70;5.67;;;18.40;70.50;;;;;;4970019;28;20199;-72
2023/06/29 00:41:56;;;;;;;11.37;5.90;;;18.40;70.50;;;;;;4970043;28;20250;-72
2023/06/29 00:44:22;;;;;;;10.80;5.60;;;18.40;70.50;;;;;;4960868;28;20205;-72
2023/06/29 00:46:49;;;;;;;8.80;5.97;;;18.30;70.50;;;;;;4971061;28;20462;-72
2023/06/29 00:49:15;;;;;;;8.70;5.93;;;18.30;70.80;;;;;;4965170;28;20961;-72
2023/06/29 00:51:41;;;;;;;8.80;6.10;;;18.20;71.00;;;;;;4975027;28;20438;-72
2023/06/29 00:54:07;;;;;;;6.77;5.93;;;18.10;71.00;;;;;;4966951;28;20490;-71
2023/06/29 00:56:34;;;;;;;8.40;5.57;;;18.10;71.10;;;;;;4972892;28;20474;-71
2023/06/29 00:59:00;;;;;;;11.60;6.07;;;18.20;70.80;;;;;;4964921;28;20191;-73
2023/06/29 01:01:27;;;;;;;7.50;5.83;;;18.30;70.50;;;;;;4966475;28;20451;-71
2023/06/29 01:03:55;;;;;;;7.50;5.80;;;18.30;70.50;;;;;;4969456;28;20440;-71
2023/06/29 01:06:27;;;;;;;8.40;6.30;;;18.30;70.50;;;;;;4970841;28;20428;-71
2023/06/29 01:08:57;;;;;;;7.73;6.07;;;18.30;70.80;;;;;;4971004;28;20956;-72
2023/06/29 01:11:23;;;;;;;9.70;6.00;;;18.30;70.50;;;;;;4966382;28;20455;-71
2023/06/29 01:13:52;;;;;;;11.27;6.67;;;18.30;70.50;;;;;;4969191;28;20482;-71
2023/06/29 01:16:19;;;;;;;11.83;7.00;;;18.30;70.50;;;;;;4972941;28;20852;-72
2023/06/29 01:18:46;;;;;;;8.60;6.30;;;18.30;70.80;;;;;;4977404;28;20454;-71
2023/06/29 01:21:13;;;;;;;8.47;6.20;;;18.10;71.10;;;;;;4974017;28;20458;-72
2023/06/29 01:23:39;;;;;;;8.50;6.27;;;18.00;71.30;;;;;;4973091;28;20520;-71
2023/06/29 01:26:05;;;;;;;9.17;5.83;;;17.90;71.40;;;;;;4975487;28;20431;-71
2023/06/29 01:28:32;;;;;;;8.67;6.50;;;17.90;71.40;;;;;;4971603;28;20457;-70
2023/06/29 01:30:58;;;;;;;7.80;6.20;;;17.90;71.40;;;;;;4969567;28;20496;-72
2023/06/29 01:33:24;;;;;;;7.63;6.30;;;17.90;71.40;;;;;;4970160;28;20494;-71
2023/06/29 01:36:04;;;;;;;7.87;5.50;;;17.90;71.40;;;;;;4974232;28;20430;-71
2023/06/29 01:39:01;;;;;;;7.60;5.77;;;17.80;71.40;;;;;;4969249;28;20439;-70
2023/06/29 01:41:32;;;;;;;8.90;5.27;;;17.80;71.30;;;;;;4969079;28;20903;-71
2023/06/29 01:44:02;;;;;;;6.50;4.70;;;17.80;71.30;;;;;;4976912;28;20438;-73
2023/06/29 01:46:28;;;;;;;8.03;5.00;;;17.90;71.00;;;;;;4978818;28;20837;-70
2023/06/29 01:48:54;;;;;;;11.50;5.80;;;17.90;70.80;;;;;;4975677;28;20434;-73
2023/06/29 01:51:20;;;;;;;12.03;6.40;;;18.00;70.80;;;;;;4971207;28;20474;-73
2023/06/29 01:53:48;;;;;;;7.00;5.57;;;18.00;70.70;;;;;;4973747;28;20441;-72
2023/06/29 01:56:14;;;;;;;7.43;5.13;;;18.00;71.00;;;;;;4973537;28;20195;-72
2023/06/29 01:58:40;;;;;;;6.20;5.50;;;17.90;71.00;;;;;;4971809;28;20937;-72
2023/06/29 02:01:05;;;;;;;8.20;6.13;;;17.90;71.30;;;;;;4971473;28;20537;-73
2023/06/29 02:03:31;;;;;;;10.77;6.13;;;17.80;71.40;;;;;;4973966;28;20231;-74
2023/06/29 02:05:57;;;;;;;8.20;6.10;;;17.80;71.40;;;;;;4976202;28;20233;-74
2023/06/29 02:08:22;;;;;;;8.93;5.90;;;17.70;71.70;;;;;;4976078;28;20199;-74
2023/06/29 02:10:48;;;;;;;6.77;5.20;;;17.60;72.00;;;;;;4970310;28;20288;-73
2023/06/29 02:13:13;;;;;;;9.57;6.20;;;17.50;71.70;;;;;;4972211;28;20294;-73
2023/06/29 02:15:39;;;;;;;7.33;6.17;;;17.30;72.10;;;;;;4968267;28;20741;-73
2023/06/29 02:18:05;;;;;;;10.53;5.30;;;17.40;72.40;;;;;;4970448;28;20191;-74
2023/06/29 02:20:30;;;;;;;7.70;4.97;;;17.40;71.80;;;;;;4968930;28;20237;-73
2023/06/29 02:22:56;;;;;;;6.80;5.40;;;17.40;71.60;;;;;;4966093;28;20246;-72
2023/06/29 02:25:21;;;;;;;8.00;5.03;;;17.40;71.60;;;;;;4969059;28;20194;-72
2023/06/29 02:27:47;;;;;;;8.40;5.20;;;17.50;71.30;;;;;;4973553;28;20286;-73
2023/06/29 02:30:13;;;;;;;9.63;5.23;;;17.40;71.40;;;;;;4970259;28;20266;-72
2023/06/29 02:32:39;;;;;;;6.60;5.07;;;17.40;71.30;;;;;;4966237;28;20198;-72
2023/06/29 02:35:05;;;;;;;11.53;7.50;;;17.40;71.40;;;;;;4973988;28;20441;-72
2023/06/29 02:37:31;;;;;;;8.47;7.10;;;17.40;71.80;;;;;;4977997;28;20229;-72
2023/06/29 02:39:57;;;;;;;9.37;6.97;;;17.40;72.30;;;;;;4971438;28;20460;-72
2023/06/29 02:42:22;;;;;;;8.57;6.73;;;17.10;73.00;;;;;;4975872;28;20692;-73
2023/06/29 02:44:48;;;;;;;10.77;7.03;;;17.00;73.60;;;;;;4969050;28;20191;-72
2023/06/29 02:47:14;;;;;;;9.60;7.03;;;16.90;73.90;;;;;;4970831;28;20191;-72
2023/06/29 02:49:39;;;;;;;7.67;6.43;;;16.70;74.30;;;;;;4967961;28;20211;-72
2023/06/29 02:52:05;;;;;;;9.97;6.80;;;16.70;74.50;;;;;;4973231;28;20191;-71
2023/06/29 02:54:30;;;;;;;7.87;5.80;;;16.70;74.60;;;;;;4970533;28;20194;-73
2023/06/29 02:56:56;;;;;;;9.13;6.57;;;16.70;74.50;;;;;;4969159;28;20193;-72
2023/06/29 02:59:22;;;;;;;9.83;6.50;;;16.70;74.60;;;;;;4968339;28;20191;-72
2023/06/29 03:01:47;;;;;;;12.40;7.30;;;16.70;74.50;;;;;;4965628;28;20191;-71
2023/06/29 03:04:13;;;;;;;10.23;6.60;;;16.60;74.60;;;;;;4966899;28;20192;-72
2023/06/29 03:06:39;;;;;;;9.10;6.80;;;16.60;74.80;;;;;;4967635;28;20202;-71
2023/06/29 03:09:04;;;;;;;9.93;6.50;;;16.70;74.80;;;;;;4967204;28;20192;-71
2023/06/29 03:11:30;;;;;;;8.67;5.93;;;16.70;74.30;;;;;;4967753;28;20233;-72
2023/06/29 03:13:57;;;;;;;7.63;5.20;;;16.80;73.70;;;;;;4970580;28;20212;-71
2023/06/29 03:16:22;;;;;;;7.73;5.70;;;16.90;73.20;;;;;;4972304;28;20195;-72
2023/06/29 03:18:48;;;;;;;7.30;5.53;;;16.90;73.00;;;;;;4965860;28;20453;-72
2023/06/29 03:21:16;;;;;;;8.60;5.40;;;17.00;72.60;;;;;;4968624;28;20222;-71
2023/06/29 03:23:42;;;;;;;8.13;5.00;;;16.90;72.70;;;;;;4970626;28;20227;-72
2023/06/29 03:26:07;;;;;;;11.67;5.43;;;16.90;72.90;;;;;;4975345;28;20441;-72
2023/06/29 03:28:33;;;;;;;8.70;5.53;;;17.00;72.70;;;;;;4973619;28;20197;-72
2023/06/29 03:30:59;;;;;;;8.77;5.80;;;17.00;72.40;;;;;;4970054;28;20799;-71
2023/06/29 03:33:24;;;;;;;5.63;5.30;;;17.10;72.30;;;;;;4968401;28;20194;-71
2023/06/29 03:35:50;;;;;;;7.80;5.60;;;17.10;72.30;;;;;;4973461;28;20198;-71
2023/06/29 03:38:17;;;;;;;8.07;5.87;;;17.10;72.10;;;;;;4976936;28;20690;-71
2023/06/29 03:40:43;;;;;;;9.93;7.00;;;17.10;72.40;;;;;;4973453;28;20229;-71
2023/06/29 03:43:08;;;;;;;10.50;7.07;;;17.20;72.40;;;;;;4968502;28;20490;-72
2023/06/29 03:45:34;;;;;;;7.73;5.97;;;17.20;72.60;;;;;;4972490;28;20591;-71
2023/06/29 03:47:59;;;;;;;10.07;6.50;;;17.10;72.90;;;;;;4968650;28;20339;-71
2023/06/29 03:50:25;;;;;;;8.20;6.00;;;17.00;73.00;;;;;;4970577;28;20210;-71
2023/06/29 03:52:51;;;;;;;8.00;6.30;;;16.90;73.50;;;;;;4972686;28;20605;-72
2023/06/29 03:55:18;;;;;;;9.23;6.37;;;16.90;73.60;;;;;;4978748;28;20204;-72
2023/06/29 03:57:43;;;;;;;8.53;5.97;;;16.90;73.50;;;;;;4980004;28;20211;-71
2023/06/29 04:00:09;;;;;;;8.47;6.00;;;16.80;73.70;;;;;;4976720;28;20480;-72
2023/06/29 04:02:35;;;;;;;15.70;6.00;;;16.80;73.90;;;;;;4968260;28;20226;-71
2023/06/29 04:05:00;;;;;;;7.37;5.90;;;16.90;73.60;;;;;;4971518;28;20456;-72
2023/06/29 04:07:26;;;;;;;10.23;6.13;;;17.00;72.90;;;;;;4972024;28;20595;-72
2023/06/29 04:09:52;;;;;;;9.60;6.97;;;17.10;72.70;;;;;;4959374;28;20242;-71
2023/06/29 04:12:17;;;;;;;7.83;6.90;;;17.20;72.30;;;;;;4972545;28;20466;-70
2023/06/29 04:14:43;;;;;;;7.53;5.97;;;17.20;72.70;;;;;;4968754;28;20202;-71
2023/06/29 04:17:09;;;;;;;8.00;6.93;;;17.30;72.10;;;;;;4971707;28;20695;-74
2023/06/29 04:19:34;;;;;;;8.27;6.60;;;17.40;72.00;;;;;;4968312;28;20285;-71
2023/06/29 04:22:00;;;;;;;10.27;6.83;;;17.30;72.30;;;;;;4970641;28;20214;-71
2023/06/29 04:24:25;;;;;;;9.10;6.70;;;17.20;72.40;;;;;;4967240;28;20182;-71
2023/06/29 04:26:51;;;;;;;9.17;6.90;;;17.20;72.60;;;;;;4970514;28;20201;-71
2023/06/29 04:29:16;;;;;;;8.93;6.73;;;17.20;72.40;;;;;;4973504;28;20238;-72
2023/06/29 04:31:42;;;;;;;9.70;7.53;;;17.20;72.60;;;;;;4971575;28;20178;-71
2023/06/29 04:34:08;;;;;;;9.60;6.63;;;17.20;72.70;;;;;;4970873;28;20603;-71
2023/06/29 04:36:33;;;;;;;8.60;6.30;;;17.20;72.70;;;;;;4968709;28;20190;-71
2023/06/29 04:39:00;;;;;;;9.23;7.03;;;17.30;72.40;;;;;;4972597;28;20735;-70
2023/06/29 04:41:32;;;;;;;11.83;6.80;;;17.30;72.40;;;;;;4967464;28;20289;-71
2023/06/29 04:44:01;;;;;;;9.43;6.60;;;17.20;72.70;;;;;;4969241;28;20504;-71
2023/06/29 04:46:30;;;;;;;11.43;7.10;;;17.10;72.70;;;;;;4972094;28;20816;-71
2023/06/29 04:48:56;;;;;;;9.87;7.30;;;17.20;72.60;;;;;;4967085;28;20450;-72
2023/06/29 04:51:22;;;;;;;11.73;7.10;;;17.20;72.40;;;;;;4969096;28;20470;-72
2023/06/29 04:53:47;;;;;;;9.80;6.87;;;17.30;72.30;;;;;;4966806;28;20198;-74
2023/06/29 04:56:13;;;;;;;11.13;7.03;;;17.30;72.00;;;;;;4962118;28;20450;-71
2023/06/29 04:58:39;;;;;;;10.67;7.70;;;17.30;72.00;;;;;;4971978;28;20281;-69
2023/06/29 05:01:05;;;;;;;13.17;6.70;;;17.40;72.00;;;;;;4969229;28;20289;-71
2023/06/29 05:03:30;;;;;;;9.20;6.20;;;17.50;71.10;;;;;;4969701;28;20261;-72
2023/06/29 05:05:56;;;;;;;9.80;7.30;;;17.50;71.30;;;;;;4971101;28;20194;-71
2023/06/29 05:08:22;;;;;;;13.10;7.10;;;17.70;71.10;;;;;;4973592;28;20285;-71
2023/06/29 05:10:47;;;;;;;14.20;8.10;;;17.70;70.80;;;;;;4974456;28;20730;-72
2023/06/29 05:13:13;;;;;;;10.17;7.03;;;17.70;71.00;;;;;;4972865;28;20649;-72
2023/06/29 05:15:38;;;;;;;10.83;7.70;;;17.70;71.10;;;;;;4982082;28;20194;-72
2023/06/29 05:18:04;;;;;;;10.43;6.70;;;17.90;70.70;;;;;;4980753;28;20694;-71
2023/06/29 05:20:30;;;;;;;8.60;7.20;;;18.00;70.20;;;;;;4967707;28;20701;-72
2023/06/29 05:22:55;;;;;;;12.93;7.37;;;18.00;70.10;;;;;;4970548;28;20231;-72
2023/06/29 05:25:21;;;;;;;13.17;7.20;;;18.10;69.90;;;;;;4964327;28;20189;-71
2023/06/29 05:27:46;;;;;;;11.37;6.70;;;18.10;69.80;;;;;;4970683;28;20188;-72
2023/06/29 05:30:13;;;;;;;10.23;7.37;;;18.10;69.70;;;;;;4959153;28;20579;-72
2023/06/29 05:32:38;;;;;;;11.70;7.67;;;18.20;69.70;;;;;;4962721;28;20190;-73
2023/06/29 05:35:04;;;;;;;10.10;6.90;;;18.20;69.70;;;;;;4970586;28;20518;-71
2023/06/29 05:37:30;;;;;;;9.17;7.33;;;18.30;69.20;;;;;;4961814;28;20195;-72
2023/06/29 05:39:58;;;;;;;8.00;6.70;;;18.40;69.20;;;;;;4966895;28;20502;-71
2023/06/29 05:42:24;;;;;;;10.83;7.00;;;18.40;69.20;;;;;;4965302;28;20230;-72
2023/06/29 05:44:50;;;;;;;8.50;7.00;;;18.50;68.80;;;;;;4971156;28;20517;-72
2023/06/29 05:47:15;;;;;;;12.17;7.50;;;18.70;68.60;;;;;;4964652;28;20555;-73
2023/06/29 05:49:42;;;;;;;13.13;7.70;;;18.70;68.50;;;;;;4968591;28;20212;-72
2023/06/29 05:52:08;;;;;;;9.87;7.43;;;18.80;68.30;;;;;;4969795;28;20650;-73
2023/06/29 05:54:33;;;;;;;9.87;6.77;;;18.90;68.00;;;;;;4965832;28;20451;-72
2023/06/29 05:56:59;;;;;;;13.40;7.07;;;19.00;67.90;;;;;;4966001;28;20232;-72
2023/06/29 05:59:25;;;;;;;9.83;7.07;;;19.00;68.00;;;;;;4969984;28;20414;-72
2023/06/29 06:01:50;;;;;;;10.10;6.43;;;19.10;67.70;;;;;;4974034;28;20248;-72
2023/06/29 06:04:16;;;;;;;10.23;6.07;;;19.30;67.20;;;;;;4983691;28;20261;-72
2023/06/29 06:06:42;;;;;;;10.57;6.10;;;19.40;67.00;;;;;;4984079;28;20191;-72
2023/06/29 06:09:07;;;;;;;11.80;6.80;;;19.50;66.60;;;;;;4977373;28;20755;-72
2023/06/29 06:11:33;;;;;;;10.40;5.13;;;19.50;66.30;;;;;;4974588;28;20590;-72
2023/06/29 06:13:58;;;;;;;9.20;6.00;;;19.60;66.00;;;;;;4965997;28;20270;-71
2023/06/29 06:16:24;;;;;;;8.93;6.13;;;19.70;65.60;;;;;;4973423;28;20566;-73
2023/06/29 06:18:50;;;;;;;11.10;6.33;;;19.70;65.60;;;;;;4974190;28;20270;-72
2023/06/29 06:21:15;;;;;;;10.93;6.63;;;19.60;66.00;;;;;;4971319;28;20571;-72
2023/06/29 06:23:41;;;;;;;12.10;7.30;;;19.70;66.00;;;;;;4971277;28;20255;-73
2023/06/29 06:26:07;;;;;;;11.23;5.67;;;20.00;65.80;;;;;;4971743;28;20195;-73
2023/06/29 06:28:33;;;;;;;13.53;6.70;;;20.10;65.60;;;;;;4973653;28;20469;-72
2023/06/29 06:30:58;;;;;;;7.70;6.33;;;20.30;65.40;;;;;;4969311;28;20208;-73
2023/06/29 06:33:24;;;;;;;11.90;6.30;;;20.40;65.00;;;;;;4971708;28;20191;-72
2023/06/29 06:35:49;;;;;;;11.13;6.40;;;20.60;64.70;;;;;;4967324;28;20188;-72
2023/06/29 06:38:15;;;;;;;12.80;6.80;;;20.80;64.50;;;;;;4969022;28;20339;-72
2023/06/29 06:40:41;;;;;;;12.20;7.70;;;20.90;64.40;;;;;;4963867;28;20230;-72
2023/06/29 06:43:06;;;;;;;12.23;8.50;;;20.90;64.70;;;;;;4974467;28;20718;-72
2023/06/29 06:45:32;;;;;;;16.83;9.07;;;21.00;64.80;;;;;;4967631;28;20295;-73
2023/06/29 06:47:57;;;;;;;12.80;7.37;;;21.00;64.80;;;;;;4979525;28;20197;-72
2023/06/29 06:50:23;;;;;;;12.83;7.63;;;21.10;65.00;;;;;;4972767;28;20628;-72
2023/06/29 06:52:48;;;;;;;11.50;8.27;;;21.20;64.70;;;;;;4972604;28;20239;-71
2023/06/29 06:55:14;;;;;;;16.13;8.20;;;21.30;64.70;;;;;;4966760;28;20182;-73
2023/06/29 06:57:40;;;;;;;13.67;9.20;;;20.90;65.10;;;;;;4974599;28;20201;-72
2023/06/29 07:00:10;;;;;;;13.10;9.67;;;20.80;65.40;;;;;;4974517;28;20295;-73
2023/06/29 07:02:36;;;;;;;16.73;9.47;;;20.80;65.70;;;;;;4970889;28;20215;-72
2023/06/29 07:05:01;;;;;;;13.47;8.60;;;20.80;66.00;;;;;;4966586;28;20439;-72
2023/06/29 07:07:27;;;;;;;13.20;7.70;;;21.00;65.70;;;;;;4973928;28;20322;-73
2023/06/29 07:09:52;;;;;;;16.90;8.60;;;21.20;65.40;;;;;;4969350;28;20218;-72
2023/06/29 07:12:18;;;;;;;11.37;8.37;;;21.20;65.10;;;;;;4973141;28;20191;-73
2023/06/29 07:14:45;;;;;;;13.17;9.00;;;21.50;65.00;;;;;;4971367;28;20189;-73
2023/06/29 07:17:11;;;;;;;16.13;9.20;;;21.60;64.40;;;;;;4980372;28;20256;-71
2023/06/29 07:19:37;;;;;;;12.17;8.30;;;21.50;64.50;;;;;;4977265;28;20969;-72
2023/06/29 07:22:02;;;;;;;16.13;7.77;;;21.60;64.50;;;;;;4966803;28;20238;-72
2023/06/29 07:24:28;;;;;;;17.00;8.40;;;21.90;64.10;;;;;;4966769;28;20202;-72
2023/06/29 07:26:54;;;;;;;12.20;7.07;;;22.20;62.90;;;;;;4963111;28;20187;-73
2023/06/29 07:29:19;;;;;;;12.27;7.30;;;22.20;62.60;;;;;;4966380;28;20198;-72
2023/06/29 07:31:46;;;;;;;8.70;5.67;;;22.30;61.90;;;;;;4968393;28;20216;-72
2023/06/29 07:34:11;;;;;;;9.50;7.73;;;22.40;61.00;;;;;;4968555;28;20860;-72
2023/06/29 07:36:37;;;;;;;21.67;7.57;;;22.40;61.70;;;;;;4970785;28;20432;-71
2023/06/29 07:39:03;;;;;;;13.63;7.17;;;22.40;61.90;;;;;;4969682;28;20239;-72
2023/06/29 07:41:29;;;;;;;16.40;7.90;;;22.50;61.60;;;;;;4966769;28;20212;-71
2023/06/29 07:43:56;;;;;;;16.70;7.90;;;22.80;61.30;;;;;;4967495;28;20317;-71
2023/06/29 07:46:21;;;;;;;12.30;6.90;;;22.80;61.00;;;;;;4968712;28;20339;-72
2023/06/29 07:48:48;;;;;;;14.93;6.47;;;22.80;60.70;;;;;;4966666;28;20529;-72
2023/06/29 07:51:14;;;;;;;13.93;6.40;;;22.90;59.60;;;;;;4974983;28;20208;-73
2023/06/29 07:53:40;;;;;;;13.13;6.20;;;23.00;59.90;;;;;;4979241;28;20462;-72
2023/06/29 07:56:06;;;;;;;8.93;6.37;;;23.00;59.60;;;;;;4975340;28;20187;-73
2023/06/29 07:58:31;;;;;;;12.27;6.37;;;23.00;59.10;;;;;;4971371;28;20968;-73
2023/06/29 08:00:57;;;;;;;12.80;6.77;;;22.90;59.50;;;;;;4966541;28;20218;-73
2023/06/29 08:03:23;;;;;;;10.60;7.00;;;23.00;59.50;;;;;;4972349;28;21107;-72
2023/06/29 08:05:50;;;;;;;16.27;6.40;;;23.10;59.60;;;;;;4973112;28;20186;-72
2023/06/29 08:08:16;;;;;;;9.73;6.17;;;23.30;58.70;;;;;;4969459;28;20205;-73
2023/06/29 08:10:42;;;;;;;13.30;5.70;;;23.30;58.40;;;;;;4964802;28;20468;-72
2023/06/29 08:13:07;;;;;;;16.63;6.30;;;23.40;58.00;;;;;;4972748;28;20281;-72
2023/06/29 08:15:33;;;;;;;9.97;5.73;;;23.50;57.40;;;;;;4958374;28;20277;-72
2023/06/29 08:17:58;;;;;;;7.63;5.50;;;23.90;56.20;;;;;;4976992;28;20205;-71
2023/06/29 08:20:24;;;;;;;7.93;5.07;;;24.10;55.70;;;;;;4971526;28;20202;-71
2023/06/29 08:22:50;;;;;;;10.07;5.20;;;24.20;54.90;;;;;;4977252;28;20221;-72
2023/06/29 08:25:15;;;;;;;8.43;3.93;;;24.00;54.60;;;;;;4969958;28;20273;-73
2023/06/29 08:27:41;;;;;;;8.03;4.23;;;24.00;54.80;;;;;;4972174;28;20916;-71
2023/06/29 08:30:08;;;;;;;5.77;4.30;;;24.40;54.40;;;;;;4965142;28;20911;-72
2023/06/29 08:32:34;;;;;;;8.47;4.23;;;24.50;53.40;;;;;;4968663;28;20180;-73
2023/06/29 08:34:59;;;;;;;6.60;4.33;;;24.80;52.90;;;;;;4974202;28;20450;-71
2023/06/29 08:37:26;;;;;;;6.60;4.07;;;25.10;51.60;;;;;;4973008;28;20196;-72
2023/06/29 08:39:52;;;;;;;4.63;3.60;;;25.30;51.00;;;;;;4970276;28;20242;-72
2023/06/29 08:42:17;;;;;;;6.93;4.10;;;25.30;51.20;;;;;;4963411;28;21452;-72
2023/06/29 08:44:43;;;;;;;9.03;4.30;;;25.40;50.60;;;;;;4968969;28;20196;-72
2023/06/29 08:47:11;;;;;;;4.17;3.17;;;25.50;50.60;;;;;;4967822;28;20532;-71
2023/06/29 08:49:39;;;;;;;5.27;3.53;;;25.50;49.70;;;;;;4964866;28;20228;-71
2023/06/29 08:52:10;;;;;;;7.23;3.73;;;25.30;50.50;;;;;;4965993;28;20452;-72
2023/06/29 08:54:36;;;;;;;5.40;3.63;;;25.20;50.10;;;;;;4971568;28;20510;-72
2023/06/29 08:57:02;;;;;;;7.70;4.17;;;25.20;50.50;;;;;;4974355;28;20480;-72
2023/06/29 08:59:28;;;;;;;6.13;3.67;;;25.10;51.00;;;;;;4965984;28;20207;-72
2023/06/29 09:01:58;;;;;;;7.30;3.63;;;25.20;50.50;;;;;;4962473;28;20523;-72
2023/06/29 09:04:24;;;;;;;8.07;3.90;;;25.40;50.20;;;;;;4969401;28;20452;-72
2023/06/29 09:06:50;;;;;;;4.67;3.77;;;25.50;49.80;;;;;;4970790;28;20809;-72
2023/06/29 09:09:15;;;;;;;6.17;4.07;;;25.40;50.30;;;;;;4969981;28;20465;-72
2023/06/29 09:11:41;;;;;;;6.73;4.27;;;25.60;50.50;;;;;;4967403;28;20278;-70
2023/06/29 09:14:07;;;;;;;6.57;4.03;;;25.80;49.80;;;;;;4960560;28;20274;-72
2023/06/29 09:16:36;;;;;;;5.70;4.03;;;26.00;48.30;;;;;;4961049;28;20197;-71
2023/06/29 09:19:05;;;;;;;11.57;3.93;;;26.00;48.60;;;;;;4964943;28;20436;-72
2023/06/29 09:21:31;;;;;;;5.73;4.03;;;26.00;48.70;;;;;;4960913;28;20461;-71
2023/06/29 09:24:00;;;;;;;4.47;3.50;;;26.00;49.00;;;;;;4967124;28;20484;-71
2023/06/29 09:26:28;;;;;;;4.60;3.47;;;25.90;49.50;;;;;;4966076;28;20194;-72
2023/06/29 09:29:03;;;;;;;5.53;3.77;;;26.10;47.90;;;;;;4964927;28;20912;-72
2023/06/29 09:31:32;;;;;;;4.30;3.30;;;26.00;47.30;;;;;;4964538;28;20507;-72
2023/06/29 09:34:17;;;;;;;6.77;3.90;;;25.70;48.10;;;;;;4962932;28;20440;-72
2023/06/29 09:36:43;;;;;;;5.10;4.07;;;25.60;49.10;;;;;;4969897;28;20448;-73
2023/06/29 09:39:10;;;;;;;5.87;3.43;;;25.80;48.10;;;;;;4973903;28;20476;-72
2023/06/29 09:41:48;;;;;;;5.00;3.27;;;26.00;48.20;;;;;;4970057;28;20481;-72
2023/06/29 09:44:21;;;;;;;4.73;3.87;;;26.40;47.00;;;;;;4967996;28;20512;-72
2023/06/29 09:46:51;;;;;;;7.23;3.90;;;26.60;46.60;;;;;;4970663;28;20493;-72
2023/06/29 09:49:20;;;;;;;7.43;3.87;;;26.70;46.30;;;;;;4972221;28;20473;-73
2023/06/29 09:51:48;;;;;;;5.80;4.00;;;26.80;46.30;;;;;;4969088;28;20430;-72
2023/06/29 09:54:14;;;;;;;7.67;4.37;;;27.00;45.70;;;;;;4975039;28;20456;-73
2023/06/29 09:56:41;;;;;;;4.50;3.40;;;27.00;45.10;;;;;;4970142;28;20434;-71
2023/06/29 09:59:13;;;;;;;8.67;3.87;;;26.70;45.50;;;;;;4973356;28;20442;-73
2023/06/29 10:01:40;;;;;;;8.77;3.70;;;26.50;46.10;;;;;;4970943;28;20466;-72
2023/06/29 10:04:06;;;;;;;6.47;3.17;;;26.40;47.00;;;;;;4969916;28;20477;-73
2023/06/29 10:06:49;;;;;;;6.03;3.63;;;26.60;46.20;;;;;;4977527;28;20438;-73
2023/06/29 10:09:20;;;;;;;6.93;3.70;;;26.90;45.70;;;;;;4975424;28;20447;-72
2023/06/29 10:11:51;;;;;;;9.93;3.47;;;27.20;45.00;;;;;;4976603;28;20447;-72
2023/06/29 10:14:18;;;;;;;4.80;3.80;;;27.40;44.50;;;;;;4967337;28;20937;-72
2023/06/29 10:16:50;;;;;;;8.23;3.90;;;27.20;45.00;;;;;;4960997;28;20430;-71
2023/06/29 10:19:18;;;;;;;7.67;3.77;;;27.30;44.90;;;;;;4967368;28;20473;-72
2023/06/29 10:21:45;;;;;;;6.90;3.73;;;27.30;44.30;;;;;;4969167;28;20437;-71
2023/06/29 10:24:17;;;;;;;6.97;3.57;;;27.60;43.70;;;;;;4970842;28;20501;-72
2023/06/29 10:26:45;;;;;;;6.73;3.70;;;27.80;43.20;;;;;;4969690;28;20435;-72
2023/06/29 10:29:10;;;;;;;6.30;3.67;;;28.10;42.70;;;;;;4967115;28;20828;-71
2023/06/29 10:31:36;;;;;;;5.50;3.60;;;28.30;42.60;;;;;;4967522;28;20508;-72
2023/06/29 10:34:07;;;;;;;6.23;3.77;;;28.50;42.20;;;;;;4969115;28;20199;-71
2023/06/29 10:36:51;;;;;;;7.00;4.97;;;28.80;41.50;;;;;;4973762;28;20431;-72
2023/06/29 10:39:41;;;;;;;5.60;4.03;;;28.60;41.50;;;;;;4965129;28;20442;-71
2023/06/29 10:42:14;;;;;;;4.67;3.70;;;28.60;41.60;;;;;;4972822;28;20952;-72
2023/06/29 10:44:40;;;;;;;5.90;4.10;;;28.60;42.00;;;;;;4965759;28;20857;-73
2023/06/29 10:47:05;;;;;;;6.63;4.07;;;28.70;41.90;;;;;;4968277;28;20439;-72
2023/06/29 10:49:31;;;;;;;4.83;4.17;;;28.80;42.00;;;;;;4969236;28;20218;-71
2023/06/29 10:52:04;;;;;;;7.43;4.80;;;28.80;41.60;;;;;;4970289;28;20650;-72
2023/06/29 10:54:30;;;;;;;6.63;4.03;;;28.60;42.00;;;;;;4974827;28;20450;-73
2023/06/29 10:57:01;;;;;;;4.87;4.30;;;28.60;42.00;;;;;;4971806;28;20446;-71
2023/06/29 10:59:28;;;;;;;8.07;4.83;;;28.50;41.90;;;;;;4970771;28;20485;-71
2023/06/29 11:01:54;;;;;;;6.43;4.03;;;28.60;42.00;;;;;;4972723;28;20435;-70
2023/06/29 11:04:21;;;;;;;4.87;3.50;;;28.60;42.40;;;;;;4973601;28;20497;-72
2023/06/29 11:06:47;;;;;;;5.20;3.63;;;28.40;42.80;;;;;;4973577;28;20462;-72
2023/06/29 11:09:13;;;;;;;6.70;4.00;;;28.80;42.70;;;;;;4972642;28;20470;-72
2023/06/29 11:11:41;;;;;;;7.60;4.30;;;29.40;41.00;;;;;;4975836;28;20183;-72
2023/06/29 11:14:07;;;;;;;6.80;4.10;;;29.70;40.20;;;;;;4973825;28;20441;-71
2023/06/29 11:16:34;;;;;;;10.20;4.27;;;30.00;39.60;;;;;;4970876;28;20439;-72
2023/06/29 11:19:02;;;;;;;8.30;4.43;;;30.00;39.40;;;;;;4972872;28;20248;-72
2023/06/29 11:21:28;;;;;;;7.07;5.20;;;30.40;39.00;;;;;;4969761;28;20458;-73
2023/06/29 11:23:54;;;;;;;5.10;3.97;;;30.90;37.90;;;;;;4973027;28;20478;-72
2023/06/29 11:26:23;;;;;;;8.47;4.30;;;31.10;37.40;;;;;;4972854;28;20660;-71
2023/06/29 11:28:52;;;;;;;7.70;4.80;;;30.70;37.80;;;;;;4970685;28;20199;-72
2023/06/29 11:31:20;;;;;;;6.67;4.30;;;30.70;38.20;;;;;;4964936;28;20561;-72
2023/06/29 11:33:49;;;;;;;8.50;4.50;;;30.40;38.60;;;;;;4966864;28;20438;-72
2023/06/29 11:36:25;;;;;;;8.07;4.73;;;30.00;39.80;;;;;;4972634;28;21083;-72
2023/06/29 11:39:07;;;;;;;11.70;5.13;;;30.00;39.80;;;;;;4973556;28;20423;-71
2023/06/29 11:41:33;;;;;;;5.20;4.33;;;29.80;39.60;;;;;;4969980;28;20446;-71
2023/06/29 11:44:00;;;;;;;11.13;5.17;;;29.60;40.20;;;;;;4976063;28;20489;-73
2023/06/29 11:46:26;;;;;;;9.07;4.83;;;30.10;39.10;;;;;;4980850;28;20473;-71
2023/06/29 11:48:56;;;;;;;8.50;5.30;;;30.00;39.40;;;;;;4975896;28;21125;-73
2023/06/29 11:51:26;;;;;;;8.13;4.47;;;29.80;39.80;;;;;;4968169;28;20478;-72
2023/06/29 11:53:58;;;;;;;8.43;5.13;;;29.80;39.80;;;;;;4970997;28;20817;-72
2023/06/29 11:56:38;;;;;;;7.70;5.50;;;30.00;39.60;;;;;;4972247;28;20426;-71
2023/06/29 11:59:05;;;;;;;10.00;5.43;;;29.10;40.40;;;;;;4966736;28;20456;-71
2023/06/29 12:01:31;;;;;;;11.90;6.03;;;29.10;41.20;;;;;;4966506;28;20443;-73
2023/06/29 12:03:57;;;;;;;6.60;4.83;;;28.90;41.60;;;;;;4969841;28;20511;-73
2023/06/29 12:06:22;;;;;;;8.53;4.70;;;28.50;42.40;;;;;;4968206;28;20203;-72
2023/06/29 12:08:51;;;;;;;8.10;5.80;;;28.20;43.00;;;;;;4969114;28;20665;-73
2023/06/29 12:11:19;;;;;;;5.53;4.80;;;28.40;42.80;;;;;;4969716;28;20544;-73
2023/06/29 12:13:50;;;;;;;9.00;5.53;;;28.40;42.70;;;;;;4967809;28;20431;-72
2023/06/29 12:16:17;;;;;;;9.13;5.37;;;28.50;42.60;;;;;;4964215;28;21004;-72
2023/06/29 12:18:43;;;;;;;7.20;4.80;;;28.90;41.90;;;;;;4971445;28;20423;-73
2023/06/29 12:21:09;;;;;;;8.10;5.20;;;28.90;41.90;;;;;;4966004;28;20458;-73
2023/06/29 12:23:34;;;;;;;9.27;5.00;;;29.50;41.10;;;;;;4965663;28;20923;-70
2023/06/29 12:26:00;;;;;;;8.30;5.03;;;29.90;40.20;;;;;;4971624;28;20206;-71
2023/06/29 12:28:26;;;;;;;9.80;5.50;;;30.40;39.50;;;;;;4965708;28;20665;-72
2023/06/29 12:30:52;;;;;;;9.00;5.80;;;30.60;38.40;;;;;;4965290;28;20223;-72
2023/06/29 12:33:18;;;;;;;7.53;5.37;;;30.30;38.40;;;;;;4971534;28;20196;-71
2023/06/29 12:35:43;;;;;;;12.10;5.80;;;29.80;39.80;;;;;;4965721;28;20451;-72
2023/06/29 12:38:09;;;;;;;8.93;6.03;;;29.50;40.30;;;;;;4971358;28;20195;-72
2023/06/29 12:40:35;;;;;;;9.53;5.83;;;28.80;41.50;;;;;;4969694;28;20218;-71